Welcome to Northern Hawkes Bay. New Zealand.
PWS Header
      nz Flag



Hit Counter


W3C Valid W3C Valid logo


    Wairoa

Select any of the Stations below to visit their websites.










Historic Data from Weather Underground
Select the location of interest below. Wairoa is the default. Please have patience, this Data is slow to load in.
Northern Hawkes Bay Historical Data
Daily Summary for February 9, 2017 Units:  Metric    English   Both
« Previous Day
Next Day »
Daily Weekly Monthly Yearly Custom
  High: Low: Average:
Temperature: 20.0 °C 12.8 °C 15.9 °C
Dew Point: 12.9 °C 6.8 °C 9.6 °C
Humidity: 98% 46% 68%
Wind Speed: 25.6km/h 0.0km/h 8.7km/h
Wind Gust: 33.1km/h - -
Wind- - SSE
Pressure: 1025.6 hPa 1018.8 hPa -
Precipitation: 0.0 mm    
Historical Graphs
 
 
Tabular Data for February 9, 2017
Time Temperature Dew Point Pressure Wind Wind Speed Wind Gust Humidity Rainfall Rate (Hourly) solar
00:03 16.0 °C 10.6 °C 1024.9 hPa South 13.4 km/h 24.5 km/h 70% 1.0 mm 0 W/m2
00:08 16.2 °C 10.3 °C 1024.9 hPa South 7.2 km/h 24.5 km/h 68% 0.0 mm 0 W/m2
00:13 16.1 °C 10.6 °C 1024.9 hPa SSE 11.1 km/h 20.9 km/h 70% 0.0 mm 0 W/m2
00:18 16.2 °C 10.7 °C 1024.9 hPa SSE 8.7 km/h 23.3 km/h 70% 0.0 mm 0 W/m2
00:23 16.1 °C 11.1 °C 1024.9 hPa SSE 7.2 km/h 23.3 km/h 72% 0.0 mm 0 W/m2
00:28 16.1 °C 11.3 °C 1025.3 hPa SSE 8.7 km/h 17.2 km/h 73% 0.0 mm 0 W/m2
00:33 16.1 °C 11.1 °C 1025.3 hPa SSE 6.1 km/h 15.8 km/h 72% 0.0 mm 0 W/m2
00:38 16.2 °C 11.2 °C 1025.3 hPa South 17.2 km/h 29.4 km/h 72% 0.0 mm 0 W/m2
00:43 16.2 °C 12.6 °C 1025.3 hPa South 18.3 km/h 31.7 km/h 79% 0.0 mm 0 W/m2
00:48 16.0 °C 12.6 °C 1025.3 hPa South 14.8 km/h 31.7 km/h 80% 0.0 mm 0 W/m2
00:53 15.6 °C 12.9 °C 1025.3 hPa South 18.3 km/h 31.7 km/h 84% 1.3 mm 0 W/m2
00:58 15.0 °C 12.5 °C 1025.3 hPa SSE 15.8 km/h 30.6 km/h 85% 1.5 mm 0 W/m2
01:03 15.1 °C 12.8 °C 1025.3 hPa SSE 15.8 km/h 30.6 km/h 86% 1.5 mm 0 W/m2
01:08 15.1 °C 12.6 °C 1024.9 hPa SSE 12.2 km/h 30.6 km/h 85% 1.5 mm 0 W/m2
01:13 15.1 °C 12.4 °C 1025.3 hPa SSE 17.2 km/h 31.7 km/h 84% 1.5 mm 0 W/m2
01:18 15.1 °C 12.4 °C 1025.6 hPa SSE 18.3 km/h 33.1 km/h 84% 1.5 mm 0 W/m2
01:23 15.1 °C 12.6 °C 1025.3 hPa South 14.8 km/h 33.1 km/h 85% 1.5 mm 0 W/m2
01:28 15.0 °C 12.3 °C 1025.3 hPa South 12.2 km/h 33.1 km/h 84% 1.5 mm 0 W/m2
01:33 15.0 °C 12.2 °C 1024.9 hPa SSE 12.2 km/h 33.1 km/h 83% 1.5 mm 0 W/m2
01:38 15.1 °C 12.1 °C 1024.9 hPa SSE 9.7 km/h 27.0 km/h 82% 1.5 mm 0 W/m2
01:43 15.1 °C 12.2 °C 1024.9 hPa South 20.9 km/h 28.0 km/h 83% 1.5 mm 0 W/m2
01:48 15.1 °C 12.2 °C 1024.9 hPa South 14.8 km/h 28.0 km/h 83% 1.5 mm 0 W/m2
01:53 15.1 °C 12.2 °C 1024.9 hPa South 25.6 km/h 30.6 km/h 83% 0.3 mm 0 W/m2
01:58 15.1 °C 12.1 °C 1024.9 hPa South 21.9 km/h 31.7 km/h 82% 0.0 mm 0 W/m2
02:03 15.2 °C 12.3 °C 1024.9 hPa South 14.8 km/h 31.7 km/h 83% 0.0 mm 0 W/m2
02:08 15.2 °C 11.6 °C 1024.9 hPa South 15.8 km/h 29.4 km/h 79% 0.0 mm 0 W/m2
02:13 15.1 °C 11.7 °C 1024.9 hPa South 14.8 km/h 29.4 km/h 80% 0.0 mm 0 W/m2
02:18 15.0 °C 11.4 °C 1024.9 hPa SSE 13.4 km/h 29.4 km/h 79% 0.0 mm 0 W/m2
02:23 15.0 °C 11.4 °C 1024.9 hPa SSE 17.2 km/h 29.4 km/h 79% 0.0 mm 0 W/m2
02:28 15.1 °C 10.9 °C 1024.6 hPa SSE 12.2 km/h 29.4 km/h 76% 0.0 mm 0 W/m2
02:33 15.1 °C 11.1 °C 1024.6 hPa SSE 18.3 km/h 33.1 km/h 77% 0.0 mm 0 W/m2
02:38 15.0 °C 11.2 °C 1024.3 hPa SSE 14.8 km/h 33.1 km/h 78% 0.0 mm 0 W/m2
02:43 14.9 °C 11.5 °C 1024.6 hPa SSE 17.2 km/h 27.0 km/h 80% 0.0 mm 0 W/m2
02:48 14.8 °C 11.2 °C 1024.6 hPa SSE 8.7 km/h 27.0 km/h 79% 0.0 mm 0 W/m2
02:53 14.8 °C 11.0 °C 1024.6 hPa SSE 11.1 km/h 23.3 km/h 78% 0.0 mm 0 W/m2
02:58 14.9 °C 11.3 °C 1024.6 hPa SSE 8.7 km/h 28.0 km/h 79% 0.0 mm 0 W/m2
03:03 14.9 °C 11.1 °C 1024.9 hPa SE 15.8 km/h 28.0 km/h 78% 0.0 mm 0 W/m2
03:08 15.0 °C 11.0 °C 1024.6 hPa South 8.7 km/h 21.9 km/h 77% 0.0 mm 0 W/m2
03:13 15.0 °C 11.0 °C 1024.6 hPa South 12.2 km/h 21.9 km/h 77% 0.0 mm 0 W/m2
03:18 15.0 °C 11.4 °C 1024.6 hPa SSE 12.2 km/h 21.9 km/h 79% 0.0 mm 0 W/m2
03:23 15.0 °C 11.2 °C 1024.3 hPa South 7.2 km/h 20.9 km/h 78% 0.0 mm 0 W/m2
03:28 15.1 °C 11.1 °C 1024.6 hPa SSE 9.7 km/h 21.9 km/h 77% 0.0 mm 0 W/m2
03:33 15.1 °C 10.9 °C 1024.3 hPa SSE 12.2 km/h 23.3 km/h 76% 0.0 mm 0 W/m2
03:38 15.1 °C 11.3 °C 1024.6 hPa SSE 11.1 km/h 23.3 km/h 78% 0.0 mm 0 W/m2
03:43 15.1 °C 11.3 °C 1024.6 hPa South 5.0 km/h 18.3 km/h 78% 0.0 mm 0 W/m2
03:48 15.0 °C 11.2 °C 1024.6 hPa SSE 11.1 km/h 24.5 km/h 78% 0.0 mm 0 W/m2
03:53 14.8 °C 11.4 °C 1024.6 hPa SSE 13.4 km/h 24.5 km/h 80% 0.0 mm 0 W/m2
04:10 13.5 °C 12.1 °C 1024.3 hPa East 12.2 km/h 21.9 km/h 91% 1.0 mm 0 W/m2
04:15 13.1 °C 12.2 °C 1024.6 hPa ESE 3.5 km/h 21.9 km/h 94% 1.5 mm 0 W/m2
04:20 12.9 °C 12.1 °C 1024.3 hPa East 5.0 km/h 17.2 km/h 95% 2.3 mm 0 W/m2
04:25 12.8 °C 12.2 °C 1023.9 hPa East 5.0 km/h 12.2 km/h 96% 2.8 mm 0 W/m2
04:30 12.9 °C 12.4 °C 1024.3 hPa ESE 3.5 km/h 8.7 km/h 97% 2.8 mm 0 W/m2
04:35 13.0 °C 12.7 °C 1024.3 hPa SSE 5.0 km/h 11.1 km/h 98% 2.8 mm 0 W/m2
04:40 12.9 °C 12.4 °C 1024.3 hPa SSE 5.0 km/h 11.1 km/h 97% 2.8 mm 0 W/m2
04:45 12.9 °C 12.4 °C 1024.3 hPa SSE 6.1 km/h 15.8 km/h 97% 2.8 mm 0 W/m2
04:50 12.9 °C 12.4 °C 1024.3 hPa South 5.0 km/h 15.8 km/h 97% 2.8 mm 0 W/m2
04:55 12.9 °C 12.4 °C 1024.3 hPa SSE 6.1 km/h 15.8 km/h 97% 2.8 mm 0 W/m2
05:00 12.9 °C 12.4 °C 1024.3 hPa SE 5.0 km/h 15.8 km/h 97% 2.8 mm 0 W/m2
05:05 12.9 °C 12.4 °C 1024.3 hPa SE 5.0 km/h 15.8 km/h 97% 2.3 mm 0 W/m2
05:10 12.9 °C 12.4 °C 1024.3 hPa SE 5.0 km/h 12.2 km/h 97% 1.8 mm 0 W/m2
05:15 12.9 °C 12.4 °C 1024.3 hPa South 5.0 km/h 12.2 km/h 97% 1.3 mm 0 W/m2
05:20 13.0 °C 12.7 °C 1024.3 hPa South 8.7 km/h 12.2 km/h 98% 0.3 mm 0 W/m2
05:25 13.1 °C 12.7 °C 1024.3 hPa SSE 11.1 km/h 15.8 km/h 97% 0.3 mm 0 W/m2
05:30 13.1 °C 12.5 °C 1024.3 hPa South 9.7 km/h 15.8 km/h 96% 0.3 mm 0 W/m2
05:35 13.1 °C 12.3 °C 1023.9 hPa SSE 5.0 km/h 15.8 km/h 95% 0.3 mm 0 W/m2
05:40 13.2 °C 12.4 °C 1023.9 hPa SSE 11.1 km/h 14.8 km/h 95% 0.3 mm 0 W/m2
05:45 13.3 °C 12.2 °C 1023.9 hPa South 2.6 km/h 18.3 km/h 93% 0.3 mm 0 W/m2
05:50 13.3 °C 12.1 °C 1024.3 hPa South 7.2 km/h 18.3 km/h 92% 0.3 mm 0 W/m2
05:55 13.3 °C 11.9 °C 1023.9 hPa South 7.2 km/h 15.8 km/h 91% 0.3 mm 0 W/m2
06:00 13.3 °C 11.7 °C 1023.9 hPa SSE 5.0 km/h 15.8 km/h 90% 0.3 mm 0 W/m2
06:05 13.3 °C 11.7 °C 1023.9 hPa SSE 5.0 km/h 12.2 km/h 90% 0.3 mm 0 W/m2
06:10 13.3 °C 11.6 °C 1023.9 hPa South 5.0 km/h 14.8 km/h 89% 0.3 mm 0 W/m2
06:15 13.7 °C 11.4 °C 1023.6 hPa South 11.1 km/h 21.9 km/h 86% 0.3 mm 0 W/m2
06:16 13.7 °C 11.4 °C 1023.6 hPa South 12.2 km/h 21.9 km/h 86% 0.3 mm 0 W/m2
06:21 14.0 °C 10.6 °C 1023.6 hPa South 8.7 km/h 30.6 km/h 80% 0.3 mm 0 W/m2
06:26 14.1 °C 10.3 °C 1023.6 hPa South 11.1 km/h 30.6 km/h 78% 0.0 mm 0 W/m2
06:31 14.6 °C 10.6 °C 1023.9 hPa South 18.3 km/h 21.9 km/h 77% 0.0 mm 0 W/m2
06:36 14.4 °C 10.6 °C 1023.9 hPa South 19.5 km/h 27.0 km/h 78% 0.0 mm 0 W/m2
06:41 14.5 °C 10.7 °C 1023.9 hPa South 13.4 km/h 27.0 km/h 78% 0.0 mm 0 W/m2
06:46 14.5 °C 10.7 °C 1023.9 hPa South 15.8 km/h 25.6 km/h 78% 0.0 mm 0 W/m2
06:51 14.0 °C 10.8 °C 1023.9 hPa South 18.3 km/h 25.6 km/h 81% 0.0 mm 0 W/m2
06:56 13.9 °C 11.1 °C 1023.9 hPa South 12.2 km/h 24.5 km/h 83% 0.0 mm 1 W/m2
07:01 14.0 °C 11.0 °C 1023.9 hPa SSE 2.6 km/h 24.5 km/h 82% 0.0 mm 4 W/m2
07:06 14.1 °C 10.7 °C 1023.9 hPa SE 12.2 km/h 20.9 km/h 80% 0.3 mm 5 W/m2
07:11 14.0 °C 11.2 °C 1023.9 hPa SSE 19.5 km/h 28.0 km/h 83% 0.3 mm 6 W/m2
07:16 13.8 °C 10.8 °C 1023.9 hPa South 11.1 km/h 28.0 km/h 82% 0.3 mm 8 W/m2
07:21 14.0 °C 10.2 °C 1023.9 hPa South 7.2 km/h 28.0 km/h 78% 0.3 mm 9 W/m2
07:26 13.9 °C 10.5 °C 1023.6 hPa SSE 3.5 km/h 25.6 km/h 80% 0.3 mm 13 W/m2
07:31 14.1 °C 10.3 °C 1023.6 hPa SSE 13.4 km/h 23.3 km/h 78% 0.5 mm 16 W/m2
07:36 14.4 °C 10.1 °C 1023.6 hPa SSE 13.4 km/h 23.3 km/h 75% 0.5 mm 13 W/m2
07:41 14.7 °C 10.3 °C 1023.6 hPa SSE 5.0 km/h 20.9 km/h 75% 0.5 mm 18 W/m2
07:47 14.7 °C 10.1 °C 1023.6 hPa SE 8.7 km/h 21.9 km/h 74% 0.5 mm 23 W/m2
07:52 14.9 °C 10.1 °C 1023.2 hPa SSE 8.7 km/h 21.9 km/h 73% 0.5 mm 31 W/m2
07:57 15.1 °C 9.7 °C 1023.2 hPa SSE 13.4 km/h 23.3 km/h 70% 0.5 mm 35 W/m2
08:02 15.3 °C 10.1 °C 1023.2 hPa South 14.8 km/h 23.3 km/h 71% 0.5 mm 39 W/m2
08:07 15.3 °C 9.7 °C 1023.2 hPa SSE 11.1 km/h 23.3 km/h 69% 0.3 mm 44 W/m2
08:14 15.4 °C 9.7 °C 1022.9 hPa SE 6.1 km/h 20.9 km/h 69% 0.3 mm 32 W/m2
08:19 15.4 °C 10.6 °C 1022.9 hPa SSE 3.5 km/h 20.9 km/h 73% 0.3 mm 32 W/m2
08:24 15.3 °C 10.5 °C 1022.9 hPa SE 6.1 km/h 15.8 km/h 73% 0.3 mm 37 W/m2
08:29 15.4 °C 10.2 °C 1022.9 hPa SSE 9.7 km/h 23.3 km/h 71% 0.0 mm 51 W/m2
08:34 15.5 °C 9.8 °C 1022.9 hPa SE 9.7 km/h 23.3 km/h 69% 0.0 mm 51 W/m2
08:40 15.6 °C 9.9 °C 1022.9 hPa SE 12.2 km/h 21.9 km/h 69% 0.0 mm 47 W/m2
08:45 15.6 °C 10.6 °C 1023.2 hPa SE 9.7 km/h 21.9 km/h 72% 0.0 mm 54 W/m2
08:50 15.6 °C 10.2 °C 1023.2 hPa SSE 12.2 km/h 24.5 km/h 70% 0.0 mm 57 W/m2
08:55 15.7 °C 10.4 °C 1022.9 hPa SSE 6.1 km/h 24.5 km/h 71% 0.0 mm 57 W/m2
09:00 15.7 °C 10.1 °C 1023.2 hPa South 7.2 km/h 21.9 km/h 69% 0.0 mm 59 W/m2
09:05 15.7 °C 10.1 °C 1023.2 hPa South 6.1 km/h 19.5 km/h 69% 0.0 mm 53 W/m2
09:10 15.7 °C 9.8 °C 1023.2 hPa SSE 6.1 km/h 21.9 km/h 68% 0.0 mm 46 W/m2
09:15 15.7 °C 9.8 °C 1023.2 hPa SSE 11.1 km/h 21.9 km/h 68% 0.0 mm 40 W/m2
09:20 15.7 °C 9.8 °C 1023.2 hPa SSE 8.7 km/h 21.9 km/h 68% 0.0 mm 39 W/m2
09:25 15.7 °C 10.1 °C 1023.2 hPa SSE 11.1 km/h 18.3 km/h 69% 0.0 mm 43 W/m2
09:30 15.7 °C 9.6 °C 1023.2 hPa SSE 13.4 km/h 19.5 km/h 67% 0.0 mm 56 W/m2
09:35 15.7 °C 9.4 °C 1023.2 hPa SSE 12.2 km/h 24.5 km/h 66% 0.0 mm 52 W/m2
09:40 15.7 °C 9.6 °C 1023.2 hPa South 14.8 km/h 24.5 km/h 67% 0.0 mm 56 W/m2
09:45 15.7 °C 9.6 °C 1023.2 hPa South 14.8 km/h 24.5 km/h 67% 0.0 mm 65 W/m2
09:50 15.7 °C 9.6 °C 1023.2 hPa South 9.7 km/h 24.5 km/h 67% 0.0 mm 65 W/m2
09:55 15.8 °C 9.4 °C 1023.2 hPa SSE 8.7 km/h 28.0 km/h 66% 0.0 mm 79 W/m2
10:00 15.9 °C 9.6 °C 1023.2 hPa SSE 6.1 km/h 28.0 km/h 66% 0.0 mm 86 W/m2
10:05 16.0 °C 9.7 °C 1023.6 hPa SSE 11.1 km/h 21.9 km/h 66% 0.0 mm 88 W/m2
10:10 16.0 °C 9.7 °C 1023.6 hPa South 13.4 km/h 21.9 km/h 66% 0.0 mm 92 W/m2
10:15 16.0 °C 9.4 °C 1023.6 hPa South 14.8 km/h 23.3 km/h 65% 0.0 mm 102 W/m2
10:20 16.0 °C 9.4 °C 1023.6 hPa South 9.7 km/h 23.3 km/h 65% 0.0 mm 92 W/m2
10:25 16.0 °C 9.4 °C 1023.6 hPa South 8.7 km/h 23.3 km/h 65% 0.0 mm 108 W/m2
10:30 16.1 °C 9.3 °C 1023.6 hPa South 11.1 km/h 20.9 km/h 64% 0.0 mm 129 W/m2
10:35 16.2 °C 9.6 °C 1023.6 hPa SSE 12.2 km/h 20.9 km/h 65% 0.0 mm 102 W/m2
10:40 16.2 °C 9.2 °C 1023.6 hPa SSE 9.7 km/h 20.9 km/h 63% 0.0 mm 103 W/m2
10:45 16.1 °C 9.3 °C 1023.6 hPa South 8.7 km/h 21.9 km/h 64% 0.0 mm 106 W/m2
10:50 16.1 °C 9.3 °C 1023.9 hPa South 11.1 km/h 21.9 km/h 64% 0.0 mm 107 W/m2
10:55 16.2 °C 9.2 °C 1023.6 hPa South 11.1 km/h 21.9 km/h 63% 0.0 mm 119 W/m2
11:00 16.2 °C 9.2 °C 1023.6 hPa SSE 8.7 km/h 20.9 km/h 63% 0.0 mm 125 W/m2
11:05 16.3 °C 9.0 °C 1023.6 hPa SSE 12.2 km/h 20.9 km/h 62% 0.0 mm 143 W/m2
11:10 16.4 °C 9.1 °C 1023.9 hPa SSE 13.4 km/h 20.9 km/h 62% 0.0 mm 137 W/m2
11:15 16.3 °C 9.3 °C 1023.6 hPa SSE 8.7 km/h 24.5 km/h 63% 0.0 mm 144 W/m2
11:20 16.4 °C 9.6 °C 1023.6 hPa South 13.4 km/h 24.5 km/h 64% 0.0 mm 152 W/m2
11:25 16.4 °C 9.1 °C 1023.6 hPa South 15.8 km/h 21.9 km/h 62% 0.0 mm 175 W/m2
11:30 16.5 °C 9.4 °C 1023.6 hPa South 15.8 km/h 23.3 km/h 63% 0.0 mm 159 W/m2
11:35 16.5 °C 9.2 °C 1023.9 hPa South 14.8 km/h 23.3 km/h 62% 0.0 mm 191 W/m2
11:40 16.6 °C 9.3 °C 1023.6 hPa South 9.7 km/h 19.5 km/h 62% 0.0 mm 202 W/m2
11:45 16.7 °C 9.4 °C 1023.6 hPa SSW 15.8 km/h 21.9 km/h 62% 0.0 mm 228 W/m2
11:50 16.8 °C 9.7 °C 1023.6 hPa SSW 11.1 km/h 21.9 km/h 63% 0.0 mm 229 W/m2
11:55 16.8 °C 9.5 °C 1023.6 hPa South 9.7 km/h 21.9 km/h 62% 0.0 mm 204 W/m2
12:00 16.8 °C 9.5 °C 1023.6 hPa South 7.2 km/h 24.5 km/h 62% 0.0 mm 211 W/m2
12:05 16.9 °C 9.6 °C 1023.6 hPa South 8.7 km/h 24.5 km/h 62% 0.0 mm 282 W/m2
12:10 17.0 °C 9.4 °C 1023.6 hPa South 8.7 km/h 27.0 km/h 61% 0.0 mm 291 W/m2
12:15 17.4 °C 9.8 °C 1023.2 hPa SSE 8.7 km/h 27.0 km/h 61% 0.0 mm 332 W/m2
12:20 17.5 °C 9.9 °C 1023.2 hPa SSE 15.8 km/h 19.5 km/h 61% 0.0 mm 339 W/m2
12:25 17.7 °C 9.8 °C 1023.6 hPa South 17.2 km/h 23.3 km/h 60% 0.0 mm 350 W/m2
12:30 17.7 °C 9.6 °C 1023.2 hPa SSE 11.1 km/h 23.3 km/h 59% 0.0 mm 323 W/m2
12:35 17.4 °C 9.6 °C 1023.2 hPa SSE 11.1 km/h 23.3 km/h 60% 0.0 mm 269 W/m2
12:40 17.4 °C 8.8 °C 1023.2 hPa SSE 9.7 km/h 21.9 km/h 57% 0.0 mm 356 W/m2
12:45 17.6 °C 8.4 °C 1023.2 hPa South 12.2 km/h 21.9 km/h 55% 0.0 mm 371 W/m2
12:50 17.8 °C 8.7 °C 1023.2 hPa SSE 5.0 km/h 20.9 km/h 55% 0.0 mm 478 W/m2
13:06 18.0 °C 8.3 °C 1023.2 hPa SSE 8.7 km/h 21.9 km/h 53% 0.0 mm 294 W/m2
13:11 17.8 °C 8.4 °C 1022.9 hPa South 3.5 km/h 21.9 km/h 54% 0.0 mm 378 W/m2
13:16 18.2 °C 8.4 °C 1022.9 hPa South 9.7 km/h 19.5 km/h 53% 0.0 mm 560 W/m2
13:21 18.2 °C 8.2 °C 1022.9 hPa South 13.4 km/h 21.9 km/h 52% 0.0 mm 438 W/m2
13:26 18.2 °C 9.0 °C 1022.9 hPa South 7.2 km/h 21.9 km/h 55% 0.0 mm 477 W/m2
13:31 18.6 °C 8.6 °C 1022.9 hPa South 11.1 km/h 21.9 km/h 52% 0.0 mm 458 W/m2
13:36 18.7 °C 7.5 °C 1022.9 hPa South 9.7 km/h 15.8 km/h 48% 0.0 mm 442 W/m2
13:41 18.5 °C 8.2 °C 1022.6 hPa South 12.2 km/h 18.3 km/h 51% 0.0 mm 505 W/m2
13:46 18.9 °C 8.8 °C 1022.6 hPa South 8.7 km/h 18.3 km/h 52% 0.0 mm 527 W/m2
13:51 18.7 °C 8.1 °C 1022.6 hPa SSE 7.2 km/h 20.9 km/h 50% 0.0 mm 514 W/m2
13:56 18.9 °C 8.6 °C 1022.6 hPa SSE 7.2 km/h 20.9 km/h 51% 0.0 mm 534 W/m2
14:01 18.7 °C 8.7 °C 1022.6 hPa SSE 12.2 km/h 20.9 km/h 52% 0.0 mm 779 W/m2
14:06 19.5 °C 8.2 °C 1022.6 hPa SSE 5.0 km/h 20.9 km/h 48% 0.0 mm 1054 W/m2
14:11 20.0 °C 8.1 °C 1022.6 hPa SSE 11.1 km/h 20.9 km/h 46% 0.0 mm 524 W/m2
14:16 19.9 °C 8.9 °C 1022.2 hPa SSE 8.7 km/h 15.8 km/h 49% 0.0 mm 669 W/m2
14:21 19.4 °C 8.1 °C 1022.6 hPa SE 14.8 km/h 20.9 km/h 48% 0.0 mm 566 W/m2
14:26 19.0 °C 7.4 °C 1022.6 hPa SSE 13.4 km/h 20.9 km/h 47% 0.0 mm 574 W/m2
14:31 19.3 °C 8.9 °C 1022.2 hPa SSE 7.2 km/h 20.9 km/h 51% 0.0 mm 515 W/m2
14:36 19.3 °C 7.7 °C 1022.6 hPa SE 7.2 km/h 15.8 km/h 47% 0.0 mm 341 W/m2
14:41 18.5 °C 7.6 °C 1022.2 hPa SSE 7.2 km/h 17.2 km/h 49% 0.0 mm 293 W/m2
14:46 18.3 °C 8.3 °C 1022.2 hPa South 13.4 km/h 17.2 km/h 52% 0.0 mm 259 W/m2
14:51 17.8 °C 7.8 °C 1022.2 hPa South 12.2 km/h 18.3 km/h 52% 0.0 mm 213 W/m2
14:56 17.6 °C 7.6 °C 1022.2 hPa South 14.8 km/h 23.3 km/h 52% 0.0 mm 249 W/m2
15:01 17.5 °C 7.3 °C 1022.2 hPa South 7.2 km/h 23.3 km/h 51% 0.0 mm 228 W/m2
15:06 17.5 °C 7.3 °C 1022.2 hPa South 8.7 km/h 23.3 km/h 51% 0.0 mm 215 W/m2
15:11 17.5 °C 7.6 °C 1021.9 hPa South 6.1 km/h 20.9 km/h 52% 0.0 mm 186 W/m2
15:16 17.5 °C 7.6 °C 1021.9 hPa SSE 6.1 km/h 15.8 km/h 52% 0.0 mm 158 W/m2
15:21 17.3 °C 7.6 °C 1021.9 hPa SSE 13.4 km/h 21.9 km/h 53% 0.0 mm 193 W/m2
15:26 17.3 °C 7.6 °C 1021.6 hPa SSE 6.1 km/h 21.9 km/h 53% 0.0 mm 199 W/m2
15:31 17.4 °C 7.4 °C 1021.6 hPa SSE 9.7 km/h 18.3 km/h 52% 0.0 mm 189 W/m2
15:36 17.4 °C 7.4 °C 1021.6 hPa South 8.7 km/h 15.8 km/h 52% 0.0 mm 192 W/m2
15:41 17.5 °C 7.6 °C 1021.6 hPa Calm   15.8 km/h 52% 0.0 mm 175 W/m2
15:46 17.4 °C 7.7 °C 1021.6 hPa SE 6.1 km/h 15.8 km/h 53% 0.0 mm 172 W/m2
15:51 17.3 °C 7.3 °C 1021.6 hPa SSE 8.7 km/h 15.8 km/h 52% 0.0 mm 168 W/m2
15:56 17.2 °C 7.6 °C 1021.6 hPa SSE 5.0 km/h 15.8 km/h 53% 0.0 mm 168 W/m2
16:01 17.5 °C 7.8 °C 1021.6 hPa SSE 9.7 km/h 14.8 km/h 53% 0.0 mm 184 W/m2
16:06 17.4 °C 7.4 °C 1021.6 hPa South 2.6 km/h 14.8 km/h 52% 0.0 mm 201 W/m2
16:11 17.5 °C 7.8 °C 1021.2 hPa South 5.0 km/h 18.3 km/h 53% 0.0 mm 210 W/m2
16:16 17.4 °C 8.3 °C 1021.2 hPa SSE 5.0 km/h 18.3 km/h 55% 0.0 mm 191 W/m2
16:21 17.6 °C 7.9 °C 1021.2 hPa SE 7.2 km/h 18.3 km/h 53% 0.0 mm 190 W/m2
16:26 17.5 °C 7.8 °C 1021.2 hPa Calm   15.8 km/h 53% 0.0 mm 191 W/m2
16:31 17.8 °C 8.4 °C 1021.2 hPa SSE 5.0 km/h 15.8 km/h 54% 0.0 mm 208 W/m2
16:36 17.8 °C 8.1 °C 1021.2 hPa SE 6.1 km/h 12.2 km/h 53% 0.0 mm 230 W/m2
16:41 17.9 °C 8.2 °C 1021.2 hPa SE 2.6 km/h 12.2 km/h 53% 0.0 mm 240 W/m2
16:46 18.1 °C 7.8 °C 1021.2 hPa ESE 7.2 km/h 12.2 km/h 51% 0.0 mm 255 W/m2
16:51 18.0 °C 8.3 °C 1021.2 hPa SE 8.7 km/h 13.4 km/h 53% 0.0 mm 229 W/m2
16:56 18.0 °C 7.7 °C 1020.9 hPa SSE 5.0 km/h 18.3 km/h 51% 0.0 mm 257 W/m2
17:01 17.9 °C 7.6 °C 1020.9 hPa SSE 9.7 km/h 18.3 km/h 51% 0.0 mm 324 W/m2
17:06 18.2 °C 8.2 °C 1020.9 hPa SSE 11.1 km/h 15.8 km/h 52% 0.0 mm 270 W/m2
17:11 18.0 °C 7.4 °C 1020.9 hPa SSE 5.0 km/h 20.9 km/h 50% 0.0 mm 233 W/m2
17:16 17.8 °C 7.8 °C 1020.9 hPa SSE 9.7 km/h 20.9 km/h 52% 0.0 mm 204 W/m2
17:21 17.6 °C 7.9 °C 1020.9 hPa SE 7.2 km/h 14.8 km/h 53% 0.0 mm 177 W/m2
17:26 17.5 °C 8.1 °C 1020.9 hPa SE 2.6 km/h 17.2 km/h 54% 0.0 mm 176 W/m2
17:31 17.4 °C 8.0 °C 1020.5 hPa SSE 3.5 km/h 17.2 km/h 54% 0.0 mm 132 W/m2
17:36 17.3 °C 8.2 °C 1020.5 hPa SSE 5.0 km/h 15.8 km/h 55% 0.0 mm 132 W/m2
17:41 17.2 °C 8.9 °C 1020.5 hPa SSE 6.1 km/h 19.5 km/h 58% 0.0 mm 127 W/m2
17:46 17.3 °C 8.9 °C 1020.5 hPa SE 6.1 km/h 19.5 km/h 58% 0.0 mm 124 W/m2
17:51 17.2 °C 8.9 °C 1020.9 hPa SE 6.1 km/h 14.8 km/h 58% 0.0 mm 103 W/m2
17:56 17.0 °C 8.4 °C 1020.9 hPa SE 5.0 km/h 14.8 km/h 57% 0.0 mm 107 W/m2
18:01 17.0 °C 8.4 °C 1020.5 hPa SSE 3.5 km/h 14.8 km/h 57% 0.0 mm 116 W/m2
18:06 17.0 °C 8.2 °C 1020.5 hPa SE 8.7 km/h 17.2 km/h 56% 0.0 mm 115 W/m2
18:11 16.9 °C 8.3 °C 1020.9 hPa SE 2.6 km/h 17.2 km/h 57% 0.0 mm 105 W/m2
18:16 16.9 °C 8.1 °C 1020.5 hPa SSE 2.6 km/h 14.8 km/h 56% 0.0 mm 128 W/m2
18:21 16.9 °C 8.1 °C 1020.5 hPa SSE 3.5 km/h 20.9 km/h 56% 0.0 mm 111 W/m2
18:26 16.8 °C 8.0 °C 1020.5 hPa SSE 6.1 km/h 20.9 km/h 56% 0.0 mm 117 W/m2
18:31 16.9 °C 7.8 °C 1020.2 hPa SE 3.5 km/h 20.9 km/h 55% 0.0 mm 106 W/m2
18:36 16.9 °C 7.6 °C 1020.2 hPa SE 9.7 km/h 20.9 km/h 54% 0.0 mm 89 W/m2
18:41 16.9 °C 7.8 °C 1020.2 hPa SSE 5.0 km/h 15.8 km/h 55% 0.0 mm 73 W/m2
18:46 16.8 °C 7.7 °C 1020.5 hPa SE 3.5 km/h 13.4 km/h 55% 0.0 mm 66 W/m2
18:51 16.7 °C 7.9 °C 1020.5 hPa SSE 5.0 km/h 12.2 km/h 56% 0.0 mm 66 W/m2
18:56 16.7 °C 7.3 °C 1020.2 hPa SSE 11.1 km/h 14.8 km/h 54% 0.0 mm 61 W/m2
19:01 16.5 °C 6.9 °C 1020.2 hPa SSE 7.2 km/h 21.9 km/h 53% 0.0 mm 56 W/m2
19:06 16.5 °C 7.2 °C 1020.2 hPa SSE 8.7 km/h 21.9 km/h 54% 0.0 mm 50 W/m2
19:11 16.5 °C 7.4 °C 1020.2 hPa South 7.2 km/h 15.8 km/h 55% 0.0 mm 47 W/m2
19:16 16.4 °C 6.8 °C 1020.5 hPa South 8.7 km/h 18.3 km/h 53% 0.0 mm 46 W/m2
19:21 16.4 °C 6.8 °C 1020.5 hPa South 8.7 km/h 18.3 km/h 53% 0.0 mm 43 W/m2
19:26 16.4 °C 6.8 °C 1020.2 hPa South 7.2 km/h 19.5 km/h 53% 0.0 mm 40 W/m2
19:31 16.4 °C 6.8 °C 1020.2 hPa South 7.2 km/h 19.5 km/h 53% 0.0 mm 35 W/m2
19:36 16.4 °C 6.8 °C 1020.2 hPa SSE 3.5 km/h 14.8 km/h 53% 0.0 mm 33 W/m2
19:41 16.4 °C 7.1 °C 1019.9 hPa SSE 5.0 km/h 12.2 km/h 54% 0.0 mm 34 W/m2
19:46 16.5 °C 7.4 °C 1020.2 hPa SSE 7.2 km/h 12.2 km/h 55% 0.0 mm 29 W/m2
19:51 16.5 °C 7.4 °C 1020.2 hPa SSE 6.1 km/h 12.2 km/h 55% 0.0 mm 23 W/m2
19:56 16.4 °C 7.3 °C 1020.2 hPa SSE 1.1 km/h 12.2 km/h 55% 0.0 mm 18 W/m2
20:01 16.3 °C 7.2 °C 1020.2 hPa SSE 6.1 km/h 11.1 km/h 55% 0.0 mm 13 W/m2
20:06 16.2 °C 7.4 °C 1020.2 hPa SSE 3.5 km/h 13.4 km/h 56% 0.0 mm 10 W/m2
20:11 16.1 °C 7.3 °C 1020.2 hPa South 5.0 km/h 13.4 km/h 56% 0.0 mm 6 W/m2
20:16 16.0 °C 7.2 °C 1019.9 hPa SSE 3.5 km/h 12.2 km/h 56% 0.0 mm 3 W/m2
20:21 15.8 °C 7.6 °C 1020.2 hPa SSE 3.5 km/h 7.2 km/h 58% 0.0 mm 1 W/m2
20:26 15.8 °C 7.8 °C 1020.2 hPa SSE 3.5 km/h 7.2 km/h 59% 0.0 mm 0 W/m2
20:31 15.8 °C 7.8 °C 1020.2 hPa SE 2.6 km/h 7.2 km/h 59% 0.0 mm 0 W/m2
20:36 15.8 °C 8.3 °C 1020.2 hPa SE 3.5 km/h 7.2 km/h 61% 0.0 mm 0 W/m2
20:41 15.7 °C 8.4 °C 1020.2 hPa SSE 2.6 km/h 6.1 km/h 62% 0.0 mm 0 W/m2
20:46 15.7 °C 8.7 °C 1020.2 hPa SSE 1.1 km/h 6.1 km/h 63% 0.0 mm 0 W/m2
20:51 15.7 °C 8.7 °C 1020.2 hPa Calm   6.1 km/h 63% 0.0 mm 0 W/m2
20:56 15.6 °C 8.6 °C 1020.2 hPa SE 1.1 km/h 5.0 km/h 63% 0.0 mm 0 W/m2
21:01 15.6 °C 8.6 °C 1020.2 hPa SSE 5.0 km/h 9.7 km/h 63% 0.0 mm 0 W/m2
21:06 15.7 °C 8.4 °C 1020.2 hPa SE 2.6 km/h 9.7 km/h 62% 0.0 mm 0 W/m2
21:11 15.8 °C 9.0 °C 1020.2 hPa ESE 3.5 km/h 9.7 km/h 64% 0.0 mm 0 W/m2
21:16 15.8 °C 8.8 °C 1020.2 hPa ESE 8.7 km/h 11.1 km/h 63% 0.0 mm 0 W/m2
21:21 15.9 °C 8.9 °C 1020.2 hPa East 3.5 km/h 12.2 km/h 63% 0.0 mm 0 W/m2
21:26 15.9 °C 9.1 °C 1020.2 hPa East 5.0 km/h 12.2 km/h 64% 0.0 mm 0 W/m2
21:31 15.9 °C 9.1 °C 1020.2 hPa ESE 2.6 km/h 8.7 km/h 64% 0.0 mm 0 W/m2
21:36 15.8 °C 8.8 °C 1020.2 hPa ESE 2.6 km/h 7.2 km/h 63% 0.0 mm 0 W/m2
21:41 15.9 °C 8.9 °C 1020.2 hPa SE 2.6 km/h 7.2 km/h 63% 0.0 mm 0 W/m2
21:46 15.9 °C 8.9 °C 1019.9 hPa ESE 1.1 km/h 7.2 km/h 63% 0.0 mm 0 W/m2
21:51 15.8 °C 9.0 °C 1020.2 hPa SE 3.5 km/h 11.1 km/h 64% 0.0 mm 0 W/m2
21:56 15.9 °C 9.3 °C 1020.2 hPa SSE 6.1 km/h 11.1 km/h 65% 0.0 mm 0 W/m2
22:01 15.9 °C 9.3 °C 1019.9 hPa SE 6.1 km/h 13.4 km/h 65% 0.0 mm 0 W/m2
22:06 15.8 °C 9.0 °C 1019.9 hPa SE 5.0 km/h 13.4 km/h 64% 0.0 mm 0 W/m2
22:11 15.8 °C 9.0 °C 1019.9 hPa SSE 9.7 km/h 14.8 km/h 64% 0.0 mm 0 W/m2
22:16 15.9 °C 8.9 °C 1019.9 hPa SE 6.1 km/h 14.8 km/h 63% 0.0 mm 0 W/m2
22:21 15.8 °C 8.8 °C 1019.5 hPa SE 8.7 km/h 14.8 km/h 63% 0.0 mm 0 W/m2
22:26 15.9 °C 8.6 °C 1019.9 hPa ESE 5.0 km/h 12.2 km/h 62% 0.0 mm 0 W/m2
22:31 15.9 °C 8.9 °C 1019.5 hPa East 5.0 km/h 13.4 km/h 63% 0.0 mm 0 W/m2
22:36 15.9 °C 8.9 °C 1019.5 hPa East 6.1 km/h 13.4 km/h 63% 0.0 mm 0 W/m2
22:41 15.8 °C 8.8 °C 1019.5 hPa East 3.5 km/h 11.1 km/h 63% 0.0 mm 0 W/m2
22:46 15.8 °C 9.0 °C 1019.5 hPa ESE 5.0 km/h 11.1 km/h 64% 0.0 mm 0 W/m2
22:51 15.8 °C 8.8 °C 1019.5 hPa ESE 5.0 km/h 11.1 km/h 63% 0.0 mm 0 W/m2
22:56 15.9 °C 8.6 °C 1019.5 hPa Calm   11.1 km/h 62% 0.0 mm 0 W/m2
23:01 15.8 °C 8.8 °C 1019.5 hPa East 6.1 km/h 11.1 km/h 63% 0.0 mm 0 W/m2
23:06 15.4 °C 9.7 °C 1019.5 hPa Calm   11.1 km/h 69% 0.0 mm 0 W/m2
23:11 14.6 °C 10.0 °C 1019.5 hPa NNW 1.1 km/h 9.7 km/h 74% 0.0 mm 0 W/m2
23:16 14.1 °C 10.1 °C 1019.5 hPa NNW 3.5 km/h 9.7 km/h 77% 0.0 mm 0 W/m2
23:21 13.7 °C 10.5 °C 1019.2 hPa NNW 3.5 km/h 9.7 km/h 81% 0.0 mm 0 W/m2
23:26 13.5 °C 10.8 °C 1019.2 hPa North 3.5 km/h 9.7 km/h 84% 0.0 mm 0 W/m2
23:31 13.4 °C 10.9 °C 1019.2 hPa NE 5.0 km/h 9.7 km/h 85% 0.0 mm 0 W/m2
23:36 13.3 °C 10.8 °C 1019.2 hPa NNE 2.6 km/h 7.2 km/h 85% 0.0 mm 0 W/m2
23:54 12.9 °C 10.6 °C 1018.8 hPa North 2.6 km/h 6.1 km/h 86% 0.0 mm 0 W/m2
23:59 12.8 °C 10.7 °C 1018.8 hPa North 3.5 km/h 6.1 km/h 87% 0.0 mm 0 W/m2
Northern Hawkes Bay. New Zealand Historic Data
Compliments of Weather Underground - 2 mb